createdAt,value
2023-05-12T00:00:15.421Z,15.19
2023-05-12T00:01:20.424Z,15.18
2023-05-12T00:02:22.792Z,15.17
2023-05-12T00:03:25.384Z,15.17
2023-05-12T00:04:28.324Z,15.15
2023-05-12T00:05:30.930Z,15.13
2023-05-12T00:06:33.395Z,15.12
2023-05-12T00:07:35.660Z,15.11
2023-05-12T00:08:38.030Z,15.09
2023-05-12T00:09:42.002Z,15.07
2023-05-12T00:10:44.322Z,15.07
2023-05-12T00:11:48.607Z,15.06
2023-05-12T00:12:50.927Z,15.04
2023-05-12T00:13:55.198Z,15.04
2023-05-12T00:14:57.683Z,15.02
2023-05-12T00:16:00.112Z,15.01
2023-05-12T00:17:04.357Z,14.99
2023-05-12T00:18:06.726Z,14.99
2023-05-12T00:19:09.266Z,14.99
2023-05-12T00:20:12.077Z,14.99
2023-05-12T00:21:14.644Z,14.96
2023-05-12T00:22:17.359Z,14.96
2023-05-12T00:23:19.691Z,14.95
2023-05-12T00:24:22.079Z,14.95
2023-05-12T00:25:24.387Z,14.93
2023-05-12T00:26:26.627Z,14.91
2023-05-12T00:27:32.178Z,14.91
2023-05-12T00:28:34.855Z,14.89
2023-05-12T00:29:37.146Z,14.88
2023-05-12T00:30:39.428Z,14.87
2023-05-12T00:31:42.176Z,14.86
2023-05-12T00:32:44.548Z,14.86
2023-05-12T00:33:46.929Z,14.85
2023-05-12T00:34:50.593Z,14.85
2023-05-12T00:35:52.903Z,14.82
2023-05-12T00:36:55.168Z,14.81
2023-05-12T00:37:57.477Z,14.81
2023-05-12T00:38:59.728Z,14.79
2023-05-12T00:40:01.997Z,14.78
2023-05-12T00:41:04.863Z,14.77
2023-05-12T00:42:07.523Z,14.77
2023-05-12T00:43:10.085Z,14.76
2023-05-12T00:44:12.402Z,14.76
2023-05-12T00:45:14.721Z,14.75
2023-05-12T00:46:18.240Z,14.73
2023-05-12T00:47:21.809Z,14.72
2023-05-12T00:48:24.585Z,14.71
2023-05-12T00:49:27.643Z,14.71
2023-05-12T00:50:30.044Z,14.70
2023-05-12T00:51:32.521Z,14.71
2023-05-12T00:52:35.614Z,14.68
2023-05-12T00:53:48.344Z,14.67
2023-05-12T00:54:51.937Z,14.68
2023-05-12T00:55:55.823Z,14.66
2023-05-12T00:56:58.488Z,14.64
2023-05-12T00:58:00.912Z,14.64
2023-05-12T00:59:03.985Z,14.64
2023-05-12T01:00:07.343Z,14.62
2023-05-12T01:01:10.180Z,14.61
2023-05-12T01:02:12.681Z,14.62
2023-05-12T01:03:15.188Z,14.60
2023-05-12T01:04:18.029Z,14.58
2023-05-12T01:05:22.664Z,14.57
2023-05-12T01:06:33.191Z,14.56
2023-05-12T01:07:36.725Z,14.55
2023-05-12T01:08:40.421Z,14.54
2023-05-12T01:09:42.762Z,14.53
2023-05-12T01:10:47.608Z,14.53
2023-05-12T01:11:52.784Z,14.52
2023-05-12T01:12:55.115Z,14.52
2023-05-12T01:13:57.397Z,14.51
2023-05-12T01:15:00.462Z,14.50
2023-05-12T01:16:04.756Z,14.49
2023-05-12T01:17:13.755Z,14.49
2023-05-12T01:18:20.584Z,14.48
2023-05-12T01:19:54.316Z,14.47
2023-05-12T01:20:57.492Z,14.46
2023-05-12T01:22:00.978Z,14.46
2023-05-12T01:23:03.726Z,14.44
2023-05-12T01:24:08.744Z,14.45
2023-05-12T01:25:13.743Z,14.44
2023-05-12T01:26:16.802Z,14.43
2023-05-12T01:27:21.570Z,14.42
2023-05-12T01:28:24.080Z,14.43
2023-05-12T01:29:27.423Z,14.42
2023-05-12T01:30:30.778Z,14.41
2023-05-12T01:31:33.691Z,14.40
2023-05-12T01:32:37.383Z,14.40
2023-05-12T01:33:42.294Z,14.39
2023-05-12T01:34:45.286Z,14.39
2023-05-12T01:35:47.621Z,14.38
2023-05-12T01:36:51.562Z,14.38
2023-05-12T01:37:54.544Z,14.37
2023-05-12T01:38:56.945Z,14.36
2023-05-12T01:40:00.322Z,14.35
2023-05-12T01:41:02.567Z,14.35
2023-05-12T01:42:06.155Z,14.32
2023-05-12T01:43:09.954Z,14.33
2023-05-12T01:44:12.414Z,14.31
2023-05-12T01:45:15.326Z,14.31
2023-05-12T01:46:17.893Z,14.30
2023-05-12T01:47:21.742Z,14.30
2023-05-12T01:48:30.666Z,14.30
2023-05-12T01:49:34.479Z,14.29
2023-05-12T01:50:37.060Z,14.28
2023-05-12T01:51:43.083Z,14.28
2023-05-12T01:52:46.493Z,14.27
2023-05-12T01:53:51.048Z,14.26
2023-05-12T01:54:53.927Z,14.26
2023-05-12T01:55:57.165Z,14.25
2023-05-12T01:57:01.122Z,14.24
2023-05-12T01:58:03.641Z,14.23
2023-05-12T01:59:07.332Z,14.23
2023-05-12T02:00:10.318Z,14.22
2023-05-12T02:01:15.522Z,14.22
2023-05-12T02:02:18.037Z,14.21
2023-05-12T02:03:20.425Z,14.21
2023-05-12T02:04:23.302Z,14.20
2023-05-12T02:05:26.477Z,14.19
2023-05-12T02:06:30.439Z,14.18
2023-05-12T02:07:32.971Z,14.18
2023-05-12T02:08:35.287Z,14.16
2023-05-12T02:09:38.076Z,14.16
2023-05-12T02:10:40.537Z,14.14
2023-05-12T02:11:42.892Z,14.14
2023-05-12T02:12:45.337Z,14.14
2023-05-12T02:13:48.320Z,14.13
2023-05-12T02:14:50.633Z,14.11
2023-05-12T02:15:53.295Z,14.11
2023-05-12T02:16:56.531Z,14.11
2023-05-12T02:18:00.867Z,14.09
2023-05-12T02:19:03.304Z,14.09
2023-05-12T02:20:08.309Z,14.08
2023-05-12T02:21:11.047Z,14.07
2023-05-12T02:22:13.369Z,14.06
2023-05-12T02:23:15.935Z,14.05
2023-05-12T02:24:18.781Z,14.05
2023-05-12T02:25:21.849Z,14.05
2023-05-12T02:26:24.466Z,14.03
2023-05-12T02:27:27.152Z,14.02
2023-05-12T02:28:30.269Z,14.02
2023-05-12T02:29:32.950Z,14.01
2023-05-12T02:30:35.470Z,14.00
2023-05-12T02:31:37.864Z,14.00
2023-05-12T02:32:48.690Z,13.98
2023-05-12T02:33:52.203Z,13.99
2023-05-12T02:34:56.383Z,13.98
2023-05-12T02:35:59.158Z,13.97
2023-05-12T02:37:01.449Z,13.96
2023-05-12T02:38:05.109Z,13.96
2023-05-12T02:39:08.286Z,13.95
2023-05-12T02:40:11.623Z,13.95
2023-05-12T02:41:15.433Z,13.93
2023-05-12T02:42:17.970Z,13.94
2023-05-12T02:43:20.905Z,13.92
2023-05-12T02:44:23.684Z,13.92
2023-05-12T02:45:26.374Z,13.91
2023-05-12T02:46:29.621Z,13.91
2023-05-12T02:47:33.256Z,13.89
2023-05-12T02:48:35.564Z,13.89
2023-05-12T02:49:38.032Z,13.88
2023-05-12T02:50:42.175Z,13.87
2023-05-12T02:51:45.408Z,13.87
2023-05-12T02:52:49.251Z,13.86
2023-05-12T02:53:51.515Z,13.85
2023-05-12T02:54:53.795Z,13.86
2023-05-12T02:55:56.135Z,13.85
2023-05-12T02:56:58.465Z,13.82
2023-05-12T02:58:00.880Z,13.82
2023-05-12T02:59:03.201Z,13.82
2023-05-12T03:00:06.959Z,13.80
2023-05-12T03:01:12.556Z,13.80
2023-05-12T03:02:17.905Z,13.79
2023-05-12T03:03:20.638Z,13.77
2023-05-12T03:04:23.722Z,13.77
2023-05-12T03:05:26.268Z,13.75
2023-05-12T03:06:30.510Z,13.76
2023-05-12T03:07:34.127Z,13.75
2023-05-12T03:08:36.818Z,13.75
2023-05-12T03:09:39.189Z,13.73
2023-05-12T03:10:41.496Z,13.73
2023-05-12T03:11:43.741Z,13.72
2023-05-12T03:12:46.087Z,13.71
2023-05-12T03:13:49.834Z,13.70
2023-05-12T03:14:52.164Z,13.69
2023-05-12T03:15:54.731Z,13.67
2023-05-12T03:16:57.314Z,13.67
2023-05-12T03:17:59.711Z,13.68
2023-05-12T03:19:02.909Z,13.66
2023-05-12T03:20:06.250Z,13.65
2023-05-12T03:21:08.585Z,13.64
2023-05-12T03:22:12.076Z,13.63
2023-05-12T03:23:14.717Z,13.62
2023-05-12T03:24:17.294Z,13.63
2023-05-12T03:25:20.004Z,13.61
2023-05-12T03:26:22.558Z,13.62
2023-05-12T03:27:26.475Z,13.60
2023-05-12T03:28:29.092Z,13.58
2023-05-12T03:29:32.070Z,13.58
2023-05-12T03:30:34.808Z,13.58
2023-05-12T03:31:37.453Z,13.57
2023-05-12T03:32:40.744Z,13.57
2023-05-12T03:33:45.194Z,13.58
2023-05-12T03:34:47.476Z,13.55
2023-05-12T03:35:50.951Z,13.54
2023-05-12T03:36:53.597Z,13.54
2023-05-12T03:37:55.899Z,13.53
2023-05-12T03:38:58.240Z,13.53
2023-05-12T03:40:00.573Z,13.53
2023-05-12T03:41:06.989Z,13.53
2023-05-12T03:42:10.403Z,13.52
2023-05-12T03:43:13.441Z,13.50
2023-05-12T03:44:17.010Z,13.51
2023-05-12T03:45:19.287Z,13.48
2023-05-12T03:46:21.643Z,13.49
2023-05-12T03:47:24.132Z,13.49
2023-05-12T03:48:27.018Z,13.47
2023-05-12T03:49:29.331Z,13.48
2023-05-12T03:50:31.599Z,13.47
2023-05-12T03:51:35.129Z,13.46
2023-05-12T03:52:38.736Z,13.45
2023-05-12T03:53:45.523Z,13.44
2023-05-12T03:54:48.567Z,13.44
2023-05-12T03:55:51.391Z,13.44
2023-05-12T03:56:53.917Z,13.45
2023-05-12T03:57:56.148Z,13.44
2023-05-12T03:58:58.568Z,13.44
2023-05-12T04:00:01.196Z,13.43
2023-05-12T04:01:04.071Z,13.43
2023-05-12T04:02:08.007Z,13.43
2023-05-12T04:03:10.528Z,13.43
2023-05-12T04:04:13.413Z,13.42
2023-05-12T04:05:16.335Z,13.42
2023-05-12T04:06:18.615Z,13.42
2023-05-12T04:07:20.995Z,13.41
2023-05-12T04:08:23.313Z,13.40
2023-05-12T04:09:25.633Z,13.41
2023-05-12T04:10:27.991Z,13.40
2023-05-12T04:11:30.331Z,13.39
2023-05-12T04:12:33.042Z,13.39
2023-05-12T04:13:35.737Z,13.38
2023-05-12T04:14:43.262Z,13.38
2023-05-12T04:15:45.903Z,13.38
2023-05-12T04:16:48.620Z,13.39
2023-05-12T04:17:51.323Z,13.37
2023-05-12T04:18:55.393Z,13.39
2023-05-12T04:19:57.717Z,13.38
2023-05-12T04:21:00.207Z,13.37
2023-05-12T04:22:02.547Z,13.38
2023-05-12T04:23:06.638Z,13.38
2023-05-12T04:24:09.115Z,13.36
2023-05-12T04:25:12.339Z,13.38
2023-05-12T04:26:16.088Z,13.38
2023-05-12T04:27:18.326Z,13.38
2023-05-12T04:28:20.981Z,13.38
2023-05-12T04:29:23.871Z,13.37
2023-05-12T04:30:26.224Z,13.39
2023-05-12T04:31:28.852Z,13.39
2023-05-12T04:32:31.505Z,13.39
2023-05-12T04:33:33.920Z,13.41
2023-05-12T04:34:36.593Z,13.42
2023-05-12T04:35:39.038Z,13.41
2023-05-12T04:36:41.560Z,13.42
2023-05-12T04:37:43.883Z,13.43
2023-05-12T04:38:46.167Z,13.45
2023-05-12T04:39:48.563Z,13.44
2023-05-12T04:40:50.939Z,13.47
2023-05-12T04:41:53.230Z,13.46
2023-05-12T04:42:56.031Z,13.48
2023-05-12T04:44:00.931Z,13.50
2023-05-12T04:45:03.698Z,13.50
2023-05-12T04:46:06.222Z,13.53
2023-05-12T04:47:08.538Z,13.55
2023-05-12T04:48:11.224Z,13.58
2023-05-12T04:49:13.546Z,13.60
2023-05-12T04:50:15.963Z,13.62
2023-05-12T04:51:18.275Z,13.65
2023-05-12T04:52:21.492Z,13.70
2023-05-12T04:53:24.107Z,13.72
2023-05-12T04:54:26.400Z,13.74
2023-05-12T04:55:29.122Z,13.79
2023-05-12T04:56:31.434Z,13.81
2023-05-12T04:57:33.922Z,13.86
2023-05-12T04:58:36.601Z,13.91
2023-05-12T04:59:41.193Z,13.96
2023-05-12T05:00:44.181Z,14.02
2023-05-12T05:01:46.801Z,14.10
2023-05-12T05:02:49.992Z,14.16
2023-05-12T05:03:52.777Z,14.24
2023-05-12T05:04:55.579Z,14.32
2023-05-12T05:05:59.916Z,14.39
2023-05-12T05:07:03.012Z,14.47
2023-05-12T05:08:06.278Z,14.55
2023-05-12T05:09:09.207Z,14.66
2023-05-12T05:10:11.852Z,14.73
2023-05-12T05:11:15.873Z,14.84
2023-05-12T05:12:18.903Z,14.93
2023-05-12T05:13:21.198Z,15.02
2023-05-12T05:14:23.784Z,15.10
2023-05-12T05:15:26.147Z,15.20
2023-05-12T05:16:29.063Z,15.28
2023-05-12T05:17:31.400Z,15.36
2023-05-12T05:18:33.834Z,15.47
2023-05-12T05:19:50.949Z,15.54
2023-05-12T05:20:59.055Z,15.64
2023-05-12T05:22:01.969Z,15.74
2023-05-12T05:23:04.229Z,15.82
2023-05-12T05:24:09.080Z,15.95
2023-05-12T05:25:11.964Z,16.05
2023-05-12T05:26:14.410Z,16.14
2023-05-12T05:27:17.113Z,16.22
2023-05-12T05:28:20.173Z,16.34
2023-05-12T05:29:22.647Z,16.43
2023-05-12T05:30:25.089Z,16.54
2023-05-12T05:31:29.153Z,16.65
2023-05-12T05:32:32.598Z,16.74
2023-05-12T05:33:35.584Z,16.84
2023-05-12T05:34:39.148Z,16.93
2023-05-12T05:35:42.705Z,17.04
2023-05-12T05:36:46.044Z,17.12
2023-05-12T05:37:48.475Z,17.22
2023-05-12T05:38:50.765Z,17.33
2023-05-12T05:39:53.167Z,17.42
2023-05-12T05:40:55.465Z,17.51
2023-05-12T05:41:59.307Z,17.61
2023-05-12T05:43:01.633Z,17.71
2023-05-12T05:44:04.036Z,17.82
2023-05-12T05:45:07.001Z,17.92
2023-05-12T05:46:09.394Z,18.02
2023-05-12T05:47:11.852Z,18.11
2023-05-12T05:48:14.284Z,18.23
2023-05-12T05:49:17.147Z,18.33
2023-05-12T05:50:19.721Z,18.43
2023-05-12T05:51:22.171Z,18.53
2023-05-12T05:52:24.666Z,18.64
2023-05-12T05:53:27.861Z,18.73
2023-05-12T05:54:30.633Z,18.82
2023-05-12T05:55:33.862Z,18.91
2023-05-12T05:56:36.631Z,18.99
2023-05-12T05:57:39.035Z,19.06
2023-05-12T05:58:41.761Z,19.14
2023-05-12T05:59:44.114Z,19.23
2023-05-12T06:00:46.677Z,19.30
2023-05-12T06:01:48.997Z,19.38
2023-05-12T06:02:51.454Z,19.46
2023-05-12T06:03:55.959Z,19.54
2023-05-12T06:05:00.240Z,19.62
2023-05-12T06:06:02.503Z,19.70
2023-05-12T06:07:05.370Z,19.77
2023-05-12T06:08:09.498Z,19.82
2023-05-12T06:09:12.620Z,19.92
2023-05-12T06:10:14.908Z,19.99
2023-05-12T06:11:17.861Z,20.06
2023-05-12T06:12:20.686Z,20.14
2023-05-12T06:13:23.031Z,20.19
2023-05-12T06:14:25.449Z,20.25
2023-05-12T06:15:27.774Z,20.30
2023-05-12T06:16:30.252Z,20.36
2023-05-12T06:17:32.895Z,20.42
2023-05-12T06:18:38.306Z,20.46
2023-05-12T06:19:41.384Z,20.50
2023-05-12T06:20:43.613Z,20.54
2023-05-12T06:21:45.979Z,20.61
2023-05-12T06:22:51.000Z,20.66
2023-05-12T06:23:55.022Z,20.72
2023-05-12T06:24:57.347Z,20.78
2023-05-12T06:25:59.621Z,20.81
2023-05-12T06:27:03.704Z,20.85
2023-05-12T06:28:05.996Z,20.90
2023-05-12T06:29:08.480Z,20.96
2023-05-12T06:30:13.569Z,21.00
2023-05-12T06:31:17.305Z,21.01
2023-05-12T06:32:19.691Z,21.06
2023-05-12T06:33:22.017Z,21.09
2023-05-12T06:34:24.584Z,21.13
2023-05-12T06:35:26.861Z,21.18
2023-05-12T06:36:30.350Z,21.24
2023-05-12T06:37:32.592Z,21.28
2023-05-12T06:38:34.836Z,21.31
2023-05-12T06:39:37.314Z,21.35
2023-05-12T06:40:39.658Z,21.37
2023-05-12T06:41:42.087Z,21.41
2023-05-12T06:42:53.257Z,21.42
2023-05-12T06:43:56.200Z,21.44
2023-05-12T06:45:04.182Z,21.47
2023-05-12T06:46:08.810Z,21.51
2023-05-12T06:47:11.279Z,21.55
2023-05-12T06:48:13.506Z,21.59
2023-05-12T06:49:15.879Z,21.65
2023-05-12T06:50:18.261Z,21.69
2023-05-12T06:51:20.745Z,21.77
2023-05-12T06:52:24.566Z,21.82
2023-05-12T06:53:27.508Z,21.89
2023-05-12T06:54:29.874Z,21.97
2023-05-12T06:55:34.366Z,22.02
2023-05-12T06:56:36.757Z,22.09
2023-05-12T06:57:39.452Z,22.17
2023-05-12T06:58:42.010Z,22.24
2023-05-12T06:59:44.307Z,22.27
2023-05-12T07:00:46.639Z,22.33
2023-05-12T07:01:49.502Z,22.38
2023-05-12T07:02:53.462Z,22.44
2023-05-12T07:03:55.897Z,22.49
2023-05-12T07:04:58.307Z,22.57
2023-05-12T07:06:01.145Z,22.64
2023-05-12T07:07:03.558Z,22.69
2023-05-12T07:08:06.070Z,22.78
2023-05-12T07:09:08.409Z,22.86
2023-05-12T07:10:11.274Z,22.95
2023-05-12T07:11:13.745Z,23.02
2023-05-12T07:12:16.116Z,23.09
2023-05-12T07:13:19.237Z,23.16
2023-05-12T07:14:21.472Z,23.25
2023-05-12T07:15:23.840Z,23.33
2023-05-12T07:16:26.564Z,23.41
2023-05-12T07:17:30.424Z,23.48
2023-05-12T07:18:32.802Z,23.57
2023-05-12T07:19:35.771Z,23.65
2023-05-12T07:20:42.626Z,23.75
2023-05-12T07:21:45.115Z,23.85
2023-05-12T07:22:47.431Z,23.96
2023-05-12T07:23:49.690Z,24.05
2023-05-12T07:24:51.943Z,24.16
2023-05-12T07:25:54.243Z,24.26
2023-05-12T07:26:56.944Z,24.37
2023-05-12T07:27:59.172Z,24.47
2023-05-12T07:29:02.750Z,24.57
2023-05-12T07:30:06.683Z,24.69
2023-05-12T07:31:09.022Z,24.80
2023-05-12T07:32:11.416Z,24.91
2023-05-12T07:33:13.779Z,24.99
2023-05-12T07:34:16.116Z,25.06
2023-05-12T07:35:18.697Z,25.13
2023-05-12T07:36:22.075Z,25.24
2023-05-12T07:37:24.586Z,25.31
2023-05-12T07:38:26.945Z,25.37
2023-05-12T07:39:31.197Z,25.42
2023-05-12T07:40:33.570Z,25.50
2023-05-12T07:41:36.205Z,25.58
2023-05-12T07:42:38.447Z,25.65
2023-05-12T07:43:40.701Z,25.72
2023-05-12T07:44:43.092Z,25.76
2023-05-12T07:45:45.911Z,25.80
2023-05-12T07:46:48.277Z,25.85
2023-05-12T07:47:52.227Z,25.93
2023-05-12T07:48:54.678Z,25.99
2023-05-12T07:49:56.957Z,26.06
2023-05-12T07:50:59.221Z,26.12
2023-05-12T07:52:01.590Z,26.20
2023-05-12T07:53:04.926Z,26.25
2023-05-12T07:54:07.564Z,26.30
2023-05-12T07:55:11.716Z,26.37
2023-05-12T07:56:14.102Z,26.42
2023-05-12T07:57:16.933Z,26.49
2023-05-12T07:58:19.179Z,26.53
2023-05-12T07:59:21.483Z,26.57
2023-05-12T08:00:23.907Z,26.60
2023-05-12T08:01:26.246Z,26.64
2023-05-12T08:02:28.621Z,26.69
2023-05-12T08:03:31.125Z,26.72
2023-05-12T08:04:34.100Z,26.77
2023-05-12T08:05:36.775Z,26.77
2023-05-12T08:06:39.168Z,26.82
2023-05-12T08:07:43.993Z,26.87
2023-05-12T08:08:46.439Z,26.88
2023-05-12T08:09:48.874Z,26.88
2023-05-12T08:10:51.196Z,26.91
2023-05-12T08:11:53.498Z,26.93
2023-05-12T08:12:56.811Z,26.95
2023-05-12T08:13:59.453Z,26.98
2023-05-12T08:15:01.866Z,27.03
2023-05-12T08:16:04.367Z,27.05
2023-05-12T08:17:07.979Z,27.10
2023-05-12T08:18:11.077Z,27.15
2023-05-12T08:19:14.139Z,27.18
2023-05-12T08:20:19.137Z,27.21
2023-05-12T08:21:21.556Z,27.25
2023-05-12T08:22:24.379Z,27.29
2023-05-12T08:23:26.667Z,27.34
2023-05-12T08:24:29.078Z,27.38
2023-05-12T08:25:31.575Z,27.43
2023-05-12T08:26:33.967Z,27.49
2023-05-12T08:27:36.270Z,27.53
2023-05-12T08:28:38.653Z,27.57
2023-05-12T08:29:41.085Z,27.61
2023-05-12T08:30:45.276Z,27.64
2023-05-12T08:31:47.712Z,27.66
2023-05-12T08:32:50.106Z,27.68
2023-05-12T08:34:08.622Z,27.68
2023-05-12T08:35:12.467Z,27.70
2023-05-12T08:36:14.835Z,27.68
2023-05-12T08:37:17.224Z,27.70
2023-05-12T08:38:19.774Z,27.71
2023-05-12T08:39:22.906Z,27.71
2023-05-12T08:40:26.589Z,27.73
2023-05-12T08:41:45.282Z,27.74
2023-05-12T08:43:13.199Z,27.78
2023-05-12T08:44:16.106Z,27.79
2023-05-12T08:45:19.092Z,27.81
2023-05-12T08:46:22.767Z,27.84
2023-05-12T08:47:26.272Z,27.84
2023-05-12T08:48:30.437Z,27.86
2023-05-12T08:49:35.381Z,27.85
2023-05-12T08:50:39.119Z,27.85
2023-05-12T08:51:49.910Z,27.80
2023-05-12T08:52:59.602Z,27.75
2023-05-12T08:54:04.689Z,27.71
2023-05-12T08:55:09.344Z,27.66
2023-05-12T08:57:18.502Z,27.59
2023-05-12T08:58:27.810Z,27.57
2023-05-12T08:59:44.217Z,27.53
2023-05-12T09:00:47.389Z,27.47
2023-05-12T09:01:51.370Z,27.44
2023-05-12T09:02:55.909Z,27.39
2023-05-12T09:03:58.687Z,27.37
2023-05-12T09:05:04.026Z,27.36
2023-05-12T09:06:07.939Z,27.37
2023-05-12T09:07:11.236Z,27.35
2023-05-12T09:08:13.875Z,27.36
2023-05-12T09:09:17.435Z,27.36
2023-05-12T09:10:34.492Z,27.36
2023-05-12T09:11:40.274Z,27.31
2023-05-12T09:12:45.262Z,27.24
2023-05-12T09:13:54.336Z,27.22
2023-05-12T09:15:08.187Z,27.18
2023-05-12T09:16:13.422Z,27.13
2023-05-12T09:17:17.588Z,27.07
2023-05-12T09:18:19.946Z,27.02
2023-05-12T09:19:22.749Z,26.97
2023-05-12T09:20:31.830Z,26.92
2023-05-12T09:21:34.804Z,26.85
2023-05-12T09:22:37.134Z,26.79
2023-05-12T09:23:39.506Z,26.72
2023-05-12T09:24:41.804Z,26.67
2023-05-12T09:25:44.960Z,26.64
2023-05-12T09:26:49.367Z,26.58
2023-05-12T09:27:56.803Z,26.52
2023-05-12T09:29:07.170Z,26.49
2023-05-12T09:30:09.637Z,26.44
2023-05-12T09:31:19.888Z,26.39
2023-05-12T09:32:33.253Z,26.37
2023-05-12T09:33:37.031Z,26.32
2023-05-12T09:34:41.761Z,26.28
2023-05-12T09:35:45.866Z,26.25
2023-05-12T09:36:56.608Z,26.23
2023-05-12T09:38:06.248Z,26.20
2023-05-12T09:39:10.325Z,26.14
2023-05-12T09:40:13.945Z,26.11
2023-05-12T09:41:23.563Z,26.07
2023-05-12T09:42:29.669Z,26.04
2023-05-12T09:43:32.298Z,26.01
2023-05-12T09:44:34.735Z,26.00
2023-05-12T09:45:39.144Z,25.98
2023-05-12T09:46:41.527Z,25.93
2023-05-12T09:47:44.937Z,25.90
2023-05-12T09:48:48.470Z,25.84
2023-05-12T09:49:52.441Z,25.81
2023-05-12T09:50:56.152Z,25.77
2023-05-12T09:51:59.380Z,25.72
2023-05-12T09:53:01.871Z,25.70
2023-05-12T09:54:06.464Z,25.66
2023-05-12T09:55:12.478Z,25.64
2023-05-12T09:56:16.593Z,25.64
2023-05-12T09:57:23.058Z,25.60
2023-05-12T09:58:28.284Z,25.59
2023-05-12T09:59:36.531Z,25.55
2023-05-12T10:01:06.009Z,25.51
2023-05-12T10:02:09.513Z,25.48
2023-05-12T10:03:15.812Z,25.45
2023-05-12T10:04:18.563Z,25.39
2023-05-12T10:05:22.516Z,25.36
2023-05-12T10:06:31.565Z,25.37
2023-05-12T10:07:34.674Z,25.35
2023-05-12T10:08:44.037Z,25.34
2023-05-12T10:09:48.588Z,25.38
2023-05-12T10:10:53.387Z,25.38
2023-05-12T10:11:58.571Z,25.39
2023-05-12T10:13:01.239Z,25.38
2023-05-12T10:14:05.343Z,25.40
2023-05-12T10:15:09.813Z,25.41
2023-05-12T10:16:13.007Z,25.41
2023-05-12T10:17:15.803Z,25.43
2023-05-12T10:18:18.882Z,25.41
2023-05-12T10:19:21.700Z,25.43
2023-05-12T10:20:26.212Z,25.45
2023-05-12T10:21:28.572Z,25.48
2023-05-12T10:22:31.462Z,25.50
2023-05-12T10:23:37.781Z,25.50
2023-05-12T10:24:41.471Z,25.47
2023-05-12T10:25:45.765Z,25.45
2023-05-12T10:26:48.213Z,25.41
2023-05-12T10:27:52.668Z,25.43
2023-05-12T10:28:55.385Z,25.45
2023-05-12T10:29:58.159Z,25.41
2023-05-12T10:31:00.650Z,25.41
2023-05-12T10:32:03.052Z,25.41
2023-05-12T10:33:06.100Z,25.42
2023-05-12T10:34:17.076Z,25.43
2023-05-12T10:35:19.711Z,25.43
2023-05-12T10:36:22.160Z,25.42
2023-05-12T10:37:24.468Z,25.43
2023-05-12T10:38:26.973Z,25.44
2023-05-12T10:39:31.622Z,25.45
2023-05-12T10:40:33.929Z,25.46
2023-05-12T10:41:36.536Z,25.51
2023-05-12T10:42:41.692Z,25.52
2023-05-12T10:43:49.310Z,25.51
2023-05-12T10:44:56.695Z,25.54
2023-05-12T10:46:22.736Z,25.55
2023-05-12T10:47:37.928Z,25.56
2023-05-12T10:48:56.629Z,25.57
2023-05-12T10:49:59.855Z,25.56
2023-05-12T10:51:09.950Z,25.58
2023-05-12T10:52:13.655Z,25.57
2023-05-12T10:53:16.378Z,25.55
2023-05-12T10:54:21.301Z,25.52
2023-05-12T10:55:52.486Z,25.50
2023-05-12T10:57:00.948Z,25.50
2023-05-12T10:58:10.410Z,25.50
2023-05-12T10:59:19.266Z,25.47
2023-05-12T11:00:25.574Z,25.46
2023-05-12T11:01:33.745Z,25.45
2023-05-12T11:02:38.607Z,25.42
2023-05-12T11:03:43.555Z,25.43
2023-05-12T11:04:50.298Z,25.42
2023-05-12T11:06:05.062Z,25.41
2023-05-12T11:07:09.981Z,25.42
2023-05-12T11:08:13.965Z,25.42
2023-05-12T11:09:17.724Z,25.38
2023-05-12T11:10:21.570Z,25.38
2023-05-12T11:11:26.373Z,25.39
2023-05-12T11:12:33.292Z,25.39
2023-05-12T11:13:35.842Z,25.38
2023-05-12T11:14:39.950Z,25.37
2023-05-12T11:15:44.778Z,25.34
2023-05-12T11:16:47.219Z,25.30
2023-05-12T11:17:49.566Z,25.27
2023-05-12T11:19:05.136Z,25.25
2023-05-12T11:20:10.054Z,25.23
2023-05-12T11:21:12.967Z,25.20
2023-05-12T11:22:20.109Z,25.12
2023-05-12T11:23:29.787Z,25.05
2023-05-12T11:24:32.168Z,25.00
2023-05-12T11:25:34.428Z,24.94
2023-05-12T11:26:36.733Z,24.89
2023-05-12T11:27:42.595Z,24.83
2023-05-12T11:28:44.952Z,24.75
2023-05-12T11:30:00.348Z,24.71
2023-05-12T11:31:02.990Z,24.63
2023-05-12T11:32:05.440Z,24.58
2023-05-12T11:33:09.073Z,24.56
2023-05-12T11:34:13.414Z,24.52
2023-05-12T11:35:18.119Z,24.49
2023-05-12T11:36:21.763Z,24.47
2023-05-12T11:37:24.231Z,24.45
2023-05-12T11:38:28.512Z,24.42
2023-05-12T11:39:32.535Z,24.41
2023-05-12T11:40:41.095Z,24.40
2023-05-12T11:41:44.231Z,24.38
2023-05-12T11:42:49.552Z,24.35
2023-05-12T11:43:52.626Z,24.33
2023-05-12T11:44:55.911Z,24.29
2023-05-12T11:45:59.980Z,24.28
2023-05-12T11:47:03.497Z,24.25
2023-05-12T11:48:15.187Z,24.22
2023-05-12T11:49:17.561Z,24.16
2023-05-12T11:50:25.456Z,24.10
2023-05-12T11:51:28.808Z,24.06
2023-05-12T11:52:32.356Z,23.98
2023-05-12T11:53:40.929Z,23.92
2023-05-12T11:55:01.004Z,23.88
2023-05-12T11:56:03.690Z,23.80
2023-05-12T11:57:06.246Z,23.78
2023-05-12T11:58:08.674Z,23.74
2023-05-12T11:59:10.962Z,23.68
2023-05-12T12:00:14.513Z,23.64
2023-05-12T12:01:16.859Z,23.62
2023-05-12T12:02:22.141Z,23.54
2023-05-12T12:03:25.881Z,23.51
2023-05-12T12:04:41.983Z,23.43
2023-05-12T12:05:46.101Z,23.35
2023-05-12T12:06:48.702Z,23.28
2023-05-12T12:07:50.968Z,23.21
2023-05-12T12:09:00.064Z,23.17
2023-05-12T12:10:16.689Z,23.14
2023-05-12T12:11:21.487Z,23.08
2023-05-12T12:12:23.933Z,23.02
2023-05-12T12:13:26.649Z,22.96
2023-05-12T12:14:29.126Z,22.95
2023-05-12T12:15:31.530Z,22.94
2023-05-12T12:16:33.952Z,22.90
2023-05-12T12:17:36.376Z,22.89
2023-05-12T12:18:38.643Z,22.87
2023-05-12T12:19:41.813Z,22.85
2023-05-12T12:20:45.855Z,22.83
2023-05-12T12:21:51.393Z,22.81
2023-05-12T12:22:54.104Z,22.79
2023-05-12T12:23:56.340Z,22.78
2023-05-12T12:24:58.658Z,22.78
2023-05-12T12:26:00.944Z,22.79
2023-05-12T12:27:04.333Z,22.80
2023-05-12T12:28:06.630Z,22.79
2023-05-12T12:29:08.948Z,22.81
2023-05-12T12:30:12.104Z,22.82
2023-05-12T12:31:16.233Z,22.79
2023-05-12T12:32:18.690Z,22.80
2023-05-12T12:33:20.964Z,22.79
2023-05-12T12:34:23.507Z,22.80
2023-05-12T12:35:26.160Z,22.79
2023-05-12T12:36:28.707Z,22.79
2023-05-12T12:37:31.064Z,22.78
2023-05-12T12:38:33.624Z,22.76
2023-05-12T12:39:35.968Z,22.72
2023-05-12T12:40:38.486Z,22.70
2023-05-12T12:41:41.228Z,22.68
2023-05-12T12:42:43.483Z,22.66
2023-05-12T12:43:45.847Z,22.63
2023-05-12T12:44:50.376Z,22.59
2023-05-12T12:45:54.782Z,22.58
2023-05-12T12:46:57.088Z,22.55
2023-05-12T12:47:59.556Z,22.53
2023-05-12T12:49:01.821Z,22.44
2023-05-12T12:50:04.305Z,22.41
2023-05-12T12:51:07.559Z,22.40
2023-05-12T12:52:09.797Z,22.37
2023-05-12T12:53:12.400Z,22.37
2023-05-12T12:54:16.027Z,22.34
2023-05-12T12:55:18.570Z,22.30
2023-05-12T12:56:23.751Z,22.26
2023-05-12T12:57:27.572Z,22.26
2023-05-12T12:58:29.868Z,22.20
2023-05-12T12:59:32.378Z,22.19
2023-05-12T13:00:34.719Z,22.17
2023-05-12T13:01:37.134Z,22.17
2023-05-12T13:02:40.248Z,22.15
2023-05-12T13:03:42.617Z,22.14
2023-05-12T13:04:44.866Z,22.14
2023-05-12T13:05:47.701Z,22.14
2023-05-12T13:06:50.165Z,22.13
2023-05-12T13:07:52.552Z,22.13
2023-05-12T13:08:54.811Z,22.13
2023-05-12T13:09:57.200Z,22.12
2023-05-12T13:11:01.460Z,22.12
2023-05-12T13:12:04.064Z,22.11
2023-05-12T13:13:06.479Z,22.12
2023-05-12T13:14:08.881Z,22.11
2023-05-12T13:15:11.765Z,22.11
2023-05-12T13:16:14.172Z,22.11
2023-05-12T13:17:16.878Z,22.14
2023-05-12T13:18:19.753Z,22.14
2023-05-12T13:19:22.343Z,22.15
2023-05-12T13:20:24.595Z,22.14
2023-05-12T13:21:27.107Z,22.15
2023-05-12T13:22:29.671Z,22.19
2023-05-12T13:23:31.971Z,22.20
2023-05-12T13:24:34.658Z,22.21
2023-05-12T13:25:36.861Z,22.22
2023-05-12T13:26:39.187Z,22.23
2023-05-12T13:27:41.606Z,22.22
2023-05-12T13:28:44.351Z,22.24
2023-05-12T13:29:49.751Z,22.25
2023-05-12T13:30:52.761Z,22.25
2023-05-12T13:31:55.253Z,22.25
2023-05-12T13:32:57.574Z,22.26
2023-05-12T13:33:59.927Z,22.28
2023-05-12T13:35:02.606Z,22.27
2023-05-12T13:36:05.224Z,22.28
2023-05-12T13:37:07.957Z,22.28
2023-05-12T13:38:11.096Z,22.30
2023-05-12T13:39:13.755Z,22.31
2023-05-12T13:40:16.009Z,22.31
2023-05-12T13:41:18.247Z,22.32
2023-05-12T13:42:22.633Z,22.33